sensor_id;sensor_type;location;lat;lon;timestamp;P1;durP1;ratioP1;P2;durP2;ratioP2
71290;SDS011;59073;51.994;4.448;2022-11-20T00:00:53;10.70;;;10.56;;
71290;SDS011;59073;51.994;4.448;2022-11-20T00:03:18;10.96;;;10.80;;
71290;SDS011;59073;51.994;4.448;2022-11-20T00:05:44;12.16;;;11.81;;
71290;SDS011;59073;51.994;4.448;2022-11-20T00:08:10;11.23;;;11.02;;
71290;SDS011;59073;51.994;4.448;2022-11-20T00:10:37;11.06;;;10.87;;
71290;SDS011;59073;51.994;4.448;2022-11-20T00:13:04;11.06;;;10.94;;
71290;SDS011;59073;51.994;4.448;2022-11-20T00:15:30;10.95;;;10.82;;
71290;SDS011;59073;51.994;4.448;2022-11-20T00:17:56;10.59;;;10.40;;
71290;SDS011;59073;51.994;4.448;2022-11-20T00:20:21;10.90;;;10.69;;
71290;SDS011;59073;51.994;4.448;2022-11-20T00:22:47;10.72;;;10.61;;
71290;SDS011;59073;51.994;4.448;2022-11-20T00:25:12;11.09;;;10.99;;
71290;SDS011;59073;51.994;4.448;2022-11-20T00:27:38;10.47;;;10.36;;
71290;SDS011;59073;51.994;4.448;2022-11-20T00:30:04;10.45;;;10.27;;
71290;SDS011;59073;51.994;4.448;2022-11-20T00:32:30;10.47;;;10.36;;
71290;SDS011;59073;51.994;4.448;2022-11-20T00:34:55;10.65;;;10.57;;
71290;SDS011;59073;51.994;4.448;2022-11-20T00:37:21;11.14;;;11.01;;
71290;SDS011;59073;51.994;4.448;2022-11-20T00:39:46;11.15;;;11.05;;
71290;SDS011;59073;51.994;4.448;2022-11-20T00:42:12;10.85;;;10.76;;
71290;SDS011;59073;51.994;4.448;2022-11-20T00:44:37;11.00;;;10.91;;
71290;SDS011;59073;51.994;4.448;2022-11-20T00:47:03;11.99;;;11.80;;
71290;SDS011;59073;51.994;4.448;2022-11-20T00:49:28;11.12;;;10.99;;
71290;SDS011;59073;51.994;4.448;2022-11-20T00:51:54;11.17;;;11.04;;
71290;SDS011;59073;51.994;4.448;2022-11-20T00:54:19;11.05;;;10.93;;
71290;SDS011;59073;51.994;4.448;2022-11-20T00:56:44;10.92;;;10.82;;
71290;SDS011;59073;51.994;4.448;2022-11-20T00:59:10;10.75;;;10.73;;
71290;SDS011;59073;51.994;4.448;2022-11-20T01:01:36;11.54;;;11.46;;
71290;SDS011;59073;51.994;4.448;2022-11-20T01:04:02;10.80;;;10.71;;
71290;SDS011;59073;51.994;4.448;2022-11-20T01:09:05;10.61;;;10.45;;
71290;SDS011;59073;51.994;4.448;2022-11-20T01:11:38;10.04;;;9.89;;
71290;SDS011;59073;51.994;4.448;2022-11-20T01:14:07;10.27;;;10.12;;
71290;SDS011;59073;51.994;4.448;2022-11-20T01:16:37;10.63;;;10.46;;
71290;SDS011;59073;51.994;4.448;2022-11-20T01:19:07;10.53;;;10.34;;
71290;SDS011;59073;51.994;4.448;2022-11-20T01:21:36;11.04;;;10.89;;
71290;SDS011;59073;51.994;4.448;2022-11-20T01:24:04;10.05;;;9.92;;
71290;SDS011;59073;51.994;4.448;2022-11-20T01:26:33;9.90;;;9.74;;
71290;SDS011;59073;51.994;4.448;2022-11-20T01:29:00;10.56;;;10.35;;
71290;SDS011;59073;51.994;4.448;2022-11-20T01:31:28;10.60;;;10.39;;
71290;SDS011;59073;51.994;4.448;2022-11-20T01:33:56;10.02;;;9.86;;
71290;SDS011;59073;51.994;4.448;2022-11-20T01:36:24;8.77;;;8.68;;
71290;SDS011;59073;51.994;4.448;2022-11-20T01:38:54;8.84;;;8.73;;
71290;SDS011;59073;51.994;4.448;2022-11-20T01:41:21;9.37;;;9.21;;
71290;SDS011;59073;51.994;4.448;2022-11-20T01:44:07;10.11;;;10.05;;
71290;SDS011;59073;51.994;4.448;2022-11-20T01:46:35;9.51;;;9.42;;
71290;SDS011;59073;51.994;4.448;2022-11-20T01:54:06;9.62;;;9.49;;
71290;SDS011;59073;51.994;4.448;2022-11-20T01:56:39;9.53;;;9.40;;
71290;SDS011;59073;51.994;4.448;2022-11-20T01:59:10;9.15;;;9.07;;
71290;SDS011;59073;51.994;4.448;2022-11-20T02:01:41;9.22;;;9.11;;
71290;SDS011;59073;51.994;4.448;2022-11-20T02:04:06;9.70;;;9.54;;
71290;SDS011;59073;51.994;4.448;2022-11-20T02:06:35;10.40;;;10.26;;
71290;SDS011;59073;51.994;4.448;2022-11-20T02:09:07;9.84;;;9.80;;
71290;SDS011;59073;51.994;4.448;2022-11-20T02:11:33;8.94;;;8.87;;
71290;SDS011;59073;51.994;4.448;2022-11-20T02:13:58;9.26;;;9.18;;
71290;SDS011;59073;51.994;4.448;2022-11-20T02:16:25;9.71;;;9.65;;
71290;SDS011;59073;51.994;4.448;2022-11-20T02:18:55;9.57;;;9.47;;
71290;SDS011;59073;51.994;4.448;2022-11-20T02:21:28;10.35;;;10.25;;
71290;SDS011;59073;51.994;4.448;2022-11-20T02:24:02;10.09;;;9.94;;
71290;SDS011;59073;51.994;4.448;2022-11-20T02:26:30;9.82;;;9.70;;
71290;SDS011;59073;51.994;4.448;2022-11-20T02:28:58;9.86;;;9.78;;
71290;SDS011;59073;51.994;4.448;2022-11-20T02:31:26;10.14;;;10.03;;
71290;SDS011;59073;51.994;4.448;2022-11-20T02:33:55;9.81;;;9.73;;
71290;SDS011;59073;51.994;4.448;2022-11-20T02:36:21;10.23;;;10.19;;
71290;SDS011;59073;51.994;4.448;2022-11-20T02:38:52;10.39;;;10.24;;
71290;SDS011;59073;51.994;4.448;2022-11-20T02:41:17;10.51;;;10.36;;
71290;SDS011;59073;51.994;4.448;2022-11-20T02:43:43;10.18;;;10.00;;
71290;SDS011;59073;51.994;4.448;2022-11-20T02:46:08;11.15;;;10.90;;
71290;SDS011;59073;51.994;4.448;2022-11-20T02:49:00;10.18;;;10.10;;
71290;SDS011;59073;51.994;4.448;2022-11-20T02:51:38;10.08;;;9.94;;
71290;SDS011;59073;51.994;4.448;2022-11-20T02:54:06;11.22;;;11.12;;
71290;SDS011;59073;51.994;4.448;2022-11-20T02:56:45;10.63;;;10.55;;
71290;SDS011;59073;51.994;4.448;2022-11-20T02:59:25;10.31;;;10.20;;
71290;SDS011;59073;51.994;4.448;2022-11-20T03:02:15;10.23;;;10.17;;
71290;SDS011;59073;51.994;4.448;2022-11-20T03:04:41;10.34;;;10.29;;
71290;SDS011;59073;51.994;4.448;2022-11-20T03:07:09;10.94;;;10.79;;
71290;SDS011;59073;51.994;4.448;2022-11-20T03:09:35;10.51;;;10.31;;
71290;SDS011;59073;51.994;4.448;2022-11-20T03:14:59;10.29;;;10.20;;
71290;SDS011;59073;51.994;4.448;2022-11-20T03:17:33;11.01;;;10.89;;
71290;SDS011;59073;51.994;4.448;2022-11-20T03:20:02;10.39;;;10.33;;
71290;SDS011;59073;51.994;4.448;2022-11-20T03:22:43;10.89;;;10.73;;
71290;SDS011;59073;51.994;4.448;2022-11-20T03:25:17;9.98;;;9.83;;
71290;SDS011;59073;51.994;4.448;2022-11-20T03:27:50;10.66;;;10.47;;
71290;SDS011;59073;51.994;4.448;2022-11-20T03:30:27;10.43;;;10.32;;
71290;SDS011;59073;51.994;4.448;2022-11-20T03:33:17;10.97;;;10.72;;
71290;SDS011;59073;51.994;4.448;2022-11-20T03:35:56;10.53;;;10.35;;
71290;SDS011;59073;51.994;4.448;2022-11-20T03:38:44;10.59;;;10.47;;
71290;SDS011;59073;51.994;4.448;2022-11-20T03:41:18;10.15;;;10.05;;
71290;SDS011;59073;51.994;4.448;2022-11-20T03:43:51;9.91;;;9.84;;
71290;SDS011;59073;51.994;4.448;2022-11-20T03:46:19;11.05;;;10.86;;
71290;SDS011;59073;51.994;4.448;2022-11-20T03:48:46;10.80;;;10.66;;
71290;SDS011;59073;51.994;4.448;2022-11-20T03:51:17;10.21;;;10.11;;
71290;SDS011;59073;51.994;4.448;2022-11-20T03:53:46;9.58;;;9.44;;
71290;SDS011;59073;51.994;4.448;2022-11-20T03:56:14;9.72;;;9.58;;
71290;SDS011;59073;51.994;4.448;2022-11-20T03:58:41;10.09;;;10.02;;
71290;SDS011;59073;51.994;4.448;2022-11-20T04:01:35;10.17;;;9.99;;
71290;SDS011;59073;51.994;4.448;2022-11-20T04:04:07;10.26;;;10.10;;
71290;SDS011;59073;51.994;4.448;2022-11-20T04:06:44;10.39;;;10.23;;
71290;SDS011;59073;51.994;4.448;2022-11-20T04:09:24;10.88;;;10.74;;
71290;SDS011;59073;51.994;4.448;2022-11-20T04:12:12;10.92;;;10.77;;
71290;SDS011;59073;51.994;4.448;2022-11-20T04:14:37;11.14;;;10.97;;
71290;SDS011;59073;51.994;4.448;2022-11-20T04:17:03;11.06;;;10.89;;
71290;SDS011;59073;51.994;4.448;2022-11-20T04:19:42;10.49;;;10.41;;
71290;SDS011;59073;51.994;4.448;2022-11-20T04:22:13;10.99;;;10.84;;
71290;SDS011;59073;51.994;4.448;2022-11-20T04:25:11;11.19;;;11.04;;
71290;SDS011;59073;51.994;4.448;2022-11-20T04:27:47;10.65;;;10.48;;
71290;SDS011;59073;51.994;4.448;2022-11-20T04:30:27;11.24;;;11.05;;
71290;SDS011;59073;51.994;4.448;2022-11-20T04:33:02;10.93;;;10.78;;
71290;SDS011;59073;51.994;4.448;2022-11-20T04:35:49;10.84;;;10.68;;
71290;SDS011;59073;51.994;4.448;2022-11-20T04:38:20;10.47;;;10.30;;
71290;SDS011;59073;51.994;4.448;2022-11-20T04:41:08;10.92;;;10.80;;
71290;SDS011;59073;51.994;4.448;2022-11-20T04:44:08;11.12;;;10.92;;
71290;SDS011;59073;51.994;4.448;2022-11-20T04:46:47;10.74;;;10.52;;
71290;SDS011;59073;51.994;4.448;2022-11-20T04:49:21;11.05;;;10.89;;
71290;SDS011;59073;51.994;4.448;2022-11-20T04:51:56;11.25;;;11.13;;
71290;SDS011;59073;51.994;4.448;2022-11-20T04:54:42;10.63;;;10.47;;
71290;SDS011;59073;51.994;4.448;2022-11-20T04:57:19;11.31;;;11.10;;
71290;SDS011;59073;51.994;4.448;2022-11-20T05:02:52;11.25;;;10.95;;
71290;SDS011;59073;51.994;4.448;2022-11-20T05:05:18;10.75;;;10.62;;
71290;SDS011;59073;51.994;4.448;2022-11-20T05:07:51;10.77;;;10.72;;
71290;SDS011;59073;51.994;4.448;2022-11-20T05:10:16;10.65;;;10.53;;
71290;SDS011;59073;51.994;4.448;2022-11-20T05:12:44;10.77;;;10.60;;
71290;SDS011;59073;51.994;4.448;2022-11-20T05:15:09;10.96;;;10.81;;
71290;SDS011;59073;51.994;4.448;2022-11-20T05:27:32;10.74;;;10.60;;
71290;SDS011;59073;51.994;4.448;2022-11-20T05:30:09;11.19;;;10.98;;
71290;SDS011;59073;51.994;4.448;2022-11-20T05:46:02;10.74;;;10.58;;
71290;SDS011;59073;51.994;4.448;2022-11-20T05:48:31;11.64;;;11.34;;
71290;SDS011;59073;51.994;4.448;2022-11-20T05:51:22;11.46;;;11.15;;
71290;SDS011;59073;51.994;4.448;2022-11-20T05:53:49;10.92;;;10.72;;
71290;SDS011;59073;51.994;4.448;2022-11-20T06:02:24;11.25;;;11.01;;
71290;SDS011;59073;51.994;4.448;2022-11-20T06:05:15;11.49;;;11.26;;
71290;SDS011;59073;51.994;4.448;2022-11-20T06:07:52;11.47;;;11.28;;
71290;SDS011;59073;51.994;4.448;2022-11-20T06:10:23;11.78;;;11.46;;
71290;SDS011;59073;51.994;4.448;2022-11-20T06:13:28;11.89;;;11.70;;
71290;SDS011;59073;51.994;4.448;2022-11-20T06:15:56;12.20;;;12.07;;
71290;SDS011;59073;51.994;4.448;2022-11-20T06:18:41;11.14;;;11.00;;
71290;SDS011;59073;51.994;4.448;2022-11-20T06:22:14;12.01;;;11.76;;
71290;SDS011;59073;51.994;4.448;2022-11-20T06:25:06;12.19;;;11.95;;
71290;SDS011;59073;51.994;4.448;2022-11-20T06:30:04;12.12;;;11.98;;
71290;SDS011;59073;51.994;4.448;2022-11-20T06:32:30;11.76;;;11.61;;
71290;SDS011;59073;51.994;4.448;2022-11-20T06:34:56;11.46;;;11.30;;
71290;SDS011;59073;51.994;4.448;2022-11-20T06:37:21;11.25;;;11.14;;
71290;SDS011;59073;51.994;4.448;2022-11-20T06:39:46;11.34;;;11.24;;
71290;SDS011;59073;51.994;4.448;2022-11-20T06:42:13;11.86;;;11.70;;
71290;SDS011;59073;51.994;4.448;2022-11-20T06:44:38;12.02;;;11.79;;
71290;SDS011;59073;51.994;4.448;2022-11-20T06:47:04;11.99;;;11.74;;
71290;SDS011;59073;51.994;4.448;2022-11-20T06:49:29;12.52;;;12.19;;
71290;SDS011;59073;51.994;4.448;2022-11-20T06:51:54;12.97;;;12.58;;
71290;SDS011;59073;51.994;4.448;2022-11-20T06:54:20;11.96;;;11.76;;
71290;SDS011;59073;51.994;4.448;2022-11-20T06:56:48;11.99;;;11.88;;
71290;SDS011;59073;51.994;4.448;2022-11-20T06:59:14;12.17;;;12.03;;
71290;SDS011;59073;51.994;4.448;2022-11-20T07:01:39;12.46;;;12.22;;
71290;SDS011;59073;51.994;4.448;2022-11-20T07:04:05;12.51;;;12.17;;
71290;SDS011;59073;51.994;4.448;2022-11-20T07:06:31;12.14;;;11.90;;
71290;SDS011;59073;51.994;4.448;2022-11-20T07:08:57;12.39;;;12.26;;
71290;SDS011;59073;51.994;4.448;2022-11-20T07:11:22;11.93;;;11.77;;
71290;SDS011;59073;51.994;4.448;2022-11-20T07:13:48;12.30;;;12.08;;
71290;SDS011;59073;51.994;4.448;2022-11-20T07:16:14;12.46;;;12.22;;
71290;SDS011;59073;51.994;4.448;2022-11-20T07:18:40;12.30;;;12.14;;
71290;SDS011;59073;51.994;4.448;2022-11-20T07:21:07;12.78;;;12.60;;
71290;SDS011;59073;51.994;4.448;2022-11-20T07:23:43;12.87;;;12.61;;
71290;SDS011;59073;51.994;4.448;2022-11-20T07:29:49;12.29;;;12.13;;
71290;SDS011;59073;51.994;4.448;2022-11-20T08:03:26;13.39;;;13.28;;
71290;SDS011;59073;51.994;4.448;2022-11-20T08:05:54;12.97;;;12.85;;
71290;SDS011;59073;51.994;4.448;2022-11-20T08:12:00;14.09;;;13.82;;
71290;SDS011;59073;51.994;4.448;2022-11-20T08:32:46;13.62;;;13.40;;
71290;SDS011;59073;51.994;4.448;2022-11-20T11:47:02;19.59;;;19.29;;
71290;SDS011;59073;51.994;4.448;2022-11-20T11:56:21;20.47;;;20.03;;
71290;SDS011;59073;51.994;4.448;2022-11-20T12:19:31;19.89;;;19.51;;
71290;SDS011;59073;51.994;4.448;2022-11-20T12:25:29;20.42;;;20.07;;
71290;SDS011;59073;51.994;4.448;2022-11-20T12:46:47;20.04;;;19.62;;
71290;SDS011;59073;51.994;4.448;2022-11-20T13:07:10;21.30;;;20.80;;
71290;SDS011;59073;51.994;4.448;2022-11-20T13:13:00;20.78;;;20.39;;
71290;SDS011;59073;51.994;4.448;2022-11-20T13:15:52;21.38;;;21.06;;
71290;SDS011;59073;51.994;4.448;2022-11-20T13:25:38;21.63;;;21.03;;
71290;SDS011;59073;51.994;4.448;2022-11-20T13:28:29;20.60;;;20.19;;
71290;SDS011;59073;51.994;4.448;2022-11-20T13:34:34;21.07;;;20.58;;
71290;SDS011;59073;51.994;4.448;2022-11-20T13:38:07;21.12;;;20.59;;
71290;SDS011;59073;51.994;4.448;2022-11-20T13:40:37;22.25;;;21.82;;
71290;SDS011;59073;51.994;4.448;2022-11-20T20:21:42;12.61;;;12.56;;
71290;SDS011;59073;51.994;4.448;2022-11-20T20:24:35;12.46;;;12.34;;
71290;SDS011;59073;51.994;4.448;2022-11-20T20:27:08;13.03;;;12.93;;
71290;SDS011;59073;51.994;4.448;2022-11-20T20:29:37;13.40;;;13.27;;
71290;SDS011;59073;51.994;4.448;2022-11-20T20:32:02;14.74;;;14.59;;
71290;SDS011;59073;51.994;4.448;2022-11-20T20:34:28;15.50;;;15.34;;
71290;SDS011;59073;51.994;4.448;2022-11-20T20:36:58;15.74;;;15.62;;
71290;SDS011;59073;51.994;4.448;2022-11-20T20:39:29;16.24;;;15.96;;
71290;SDS011;59073;51.994;4.448;2022-11-20T20:41:54;15.97;;;15.79;;
71290;SDS011;59073;51.994;4.448;2022-11-20T20:44:20;16.07;;;15.81;;
71290;SDS011;59073;51.994;4.448;2022-11-20T20:47:04;16.38;;;16.16;;
71290;SDS011;59073;51.994;4.448;2022-11-20T20:49:31;15.97;;;15.90;;
71290;SDS011;59073;51.994;4.448;2022-11-20T20:51:57;16.90;;;16.83;;
71290;SDS011;59073;51.994;4.448;2022-11-20T20:54:23;16.36;;;16.27;;
71290;SDS011;59073;51.994;4.448;2022-11-20T20:56:49;16.28;;;16.22;;
71290;SDS011;59073;51.994;4.448;2022-11-20T20:59:15;15.33;;;15.17;;
71290;SDS011;59073;51.994;4.448;2022-11-20T21:01:40;14.59;;;14.27;;
71290;SDS011;59073;51.994;4.448;2022-11-20T21:04:06;10.28;;;10.13;;
71290;SDS011;59073;51.994;4.448;2022-11-20T21:06:31;9.63;;;9.55;;
71290;SDS011;59073;51.994;4.448;2022-11-20T21:08:57;9.34;;;9.30;;
71290;SDS011;59073;51.994;4.448;2022-11-20T21:11:22;9.66;;;9.60;;
71290;SDS011;59073;51.994;4.448;2022-11-20T21:13:48;9.66;;;9.58;;
71290;SDS011;59073;51.994;4.448;2022-11-20T21:16:14;8.44;;;8.36;;
71290;SDS011;59073;51.994;4.448;2022-11-20T21:18:42;5.57;;;5.49;;
71290;SDS011;59073;51.994;4.448;2022-11-20T21:21:07;3.42;;;3.31;;
71290;SDS011;59073;51.994;4.448;2022-11-20T21:23:54;2.63;;;2.51;;
71290;SDS011;59073;51.994;4.448;2022-11-20T21:26:20;2.79;;;2.59;;
71290;SDS011;59073;51.994;4.448;2022-11-20T21:28:45;3.13;;;2.82;;
71290;SDS011;59073;51.994;4.448;2022-11-20T21:31:12;5.56;;;4.96;;
71290;SDS011;59073;51.994;4.448;2022-11-20T21:33:46;12.65;;;12.30;;
71290;SDS011;59073;51.994;4.448;2022-11-20T21:36:19;13.07;;;12.96;;
71290;SDS011;59073;51.994;4.448;2022-11-20T21:38:47;13.41;;;13.38;;
71290;SDS011;59073;51.994;4.448;2022-11-20T21:41:14;9.32;;;9.30;;
71290;SDS011;59073;51.994;4.448;2022-11-20T21:43:41;8.15;;;8.10;;
71290;SDS011;59073;51.994;4.448;2022-11-20T21:46:12;3.73;;;3.68;;
71290;SDS011;59073;51.994;4.448;2022-11-20T21:48:39;6.29;;;6.24;;
71290;SDS011;59073;51.994;4.448;2022-11-20T21:51:13;4.45;;;4.42;;
71290;SDS011;59073;51.994;4.448;2022-11-20T21:53:40;4.00;;;3.94;;
71290;SDS011;59073;51.994;4.448;2022-11-20T21:56:07;3.97;;;3.88;;
71290;SDS011;59073;51.994;4.448;2022-11-20T21:58:35;3.03;;;2.96;;
71290;SDS011;59073;51.994;4.448;2022-11-20T22:01:08;2.23;;;2.16;;
71290;SDS011;59073;51.994;4.448;2022-11-20T22:03:35;1.64;;;1.56;;
71290;SDS011;59073;51.994;4.448;2022-11-20T22:06:01;1.31;;;1.22;;
71290;SDS011;59073;51.994;4.448;2022-11-20T22:08:28;1.40;;;1.29;;
71290;SDS011;59073;51.994;4.448;2022-11-20T22:11:04;1.31;;;1.17;;
71290;SDS011;59073;51.994;4.448;2022-11-20T22:13:31;1.91;;;1.67;;
71290;SDS011;59073;51.994;4.448;2022-11-20T22:16:16;3.87;;;3.26;;
71290;SDS011;59073;51.994;4.448;2022-11-20T22:18:42;7.89;;;7.18;;
71290;SDS011;59073;51.994;4.448;2022-11-20T22:21:11;9.30;;;9.12;;
71290;SDS011;59073;51.994;4.448;2022-11-20T22:23:38;10.72;;;10.64;;
71290;SDS011;59073;51.994;4.448;2022-11-20T22:26:11;10.80;;;10.77;;
